createdAt,value
2018-03-22T00:06:41.467Z,-4.34
2018-03-22T00:16:39.034Z,-4.44
2018-03-22T00:26:36.651Z,-4.34
2018-03-22T00:36:31.302Z,-4.54
2018-03-22T00:46:29.148Z,-4.63
2018-03-22T00:56:27.066Z,-4.63
2018-03-22T01:06:24.971Z,-4.73
2018-03-22T01:16:20.919Z,-4.83
2018-03-22T01:26:19.245Z,-4.83
2018-03-22T01:36:17.522Z,-4.83
2018-03-22T01:46:14.952Z,-5.22
2018-03-22T01:56:12.463Z,-5.12
2018-03-22T02:06:09.732Z,-5.22
2018-03-22T02:16:07.131Z,-5.32
2018-03-22T02:26:02.816Z,-5.42
2018-03-22T02:36:01.083Z,-5.42
2018-03-22T02:45:59.633Z,-5.61
2018-03-22T02:55:56.083Z,-5.61
2018-03-22T03:05:51.344Z,-5.71
2018-03-22T03:15:48.831Z,-5.91
2018-03-22T03:25:45.028Z,-5.81
2018-03-22T03:35:41.275Z,-5.71
2018-03-22T03:45:39.377Z,-5.81
2018-03-22T03:55:36.570Z,-5.81
2018-03-22T04:05:34.768Z,-6.00
2018-03-22T04:15:29.750Z,-6.00
2018-03-22T04:25:25.508Z,-6.10
2018-03-22T04:35:23.477Z,-6.10
2018-03-22T04:45:18.958Z,-6.20
2018-03-22T04:55:14.261Z,-6.30
2018-03-22T05:05:12.288Z,-6.30
2018-03-22T05:15:08.677Z,-6.20
2018-03-22T05:25:06.354Z,-6.10
2018-03-22T05:35:04.141Z,-6.10
2018-03-22T05:44:57.705Z,-5.71
2018-03-22T05:54:52.414Z,-5.32
2018-03-22T06:04:51.154Z,-5.22
2018-03-22T06:14:48.379Z,-4.73
2018-03-22T06:24:42.826Z,-4.44
2018-03-22T06:34:41.425Z,-4.14
2018-03-22T06:44:40.044Z,-3.75
2018-03-22T06:54:37.962Z,-3.36
2018-03-22T07:04:34.488Z,-2.87
2018-03-22T07:14:33.423Z,-2.38
2018-03-22T07:24:31.316Z,-1.89
2018-03-22T07:34:25.542Z,-1.60
2018-03-22T07:44:23.875Z,-1.11
2018-03-22T07:54:20.030Z,-0.82
2018-03-22T08:03:56.994Z,-0.72
2018-03-22T08:13:33.655Z,-0.04
2018-03-22T08:23:10.521Z,-0.04
2018-03-22T08:32:47.433Z,0.06
2018-03-22T08:42:24.306Z,0.45
2018-03-22T08:52:01.328Z,-0.13
2018-03-22T09:01:38.189Z,0.55
2018-03-22T09:11:14.356Z,0.35
2018-03-22T09:20:51.598Z,1.43
2018-03-22T09:30:28.860Z,0.84
2018-03-22T09:40:05.094Z,0.74
2018-03-22T09:49:42.557Z,2.31
2018-03-22T09:59:19.436Z,1.92
2018-03-22T10:08:55.904Z,2.02
2018-03-22T10:18:33.461Z,2.11
2018-03-22T10:28:09.899Z,2.70
2018-03-22T10:37:47.639Z,3.39
2018-03-22T10:47:26.451Z,3.58
2018-03-22T10:56:59.759Z,4.27
2018-03-22T11:06:37.465Z,4.76
2018-03-22T11:16:13.556Z,7.69
2018-03-22T11:25:50.710Z,9.84
2018-03-22T11:35:27.334Z,7.10
2018-03-22T11:45:03.978Z,7.79
2018-03-22T11:54:40.601Z,8.76
2018-03-22T12:04:17.168Z,7.79
2018-03-22T12:13:53.436Z,8.67
2018-03-22T12:23:28.866Z,6.32
2018-03-22T12:33:05.912Z,7.00
2018-03-22T12:42:42.634Z,7.59
2018-03-22T12:52:19.446Z,6.03
2018-03-22T13:01:54.223Z,6.71
2018-03-22T13:11:31.908Z,7.30
2018-03-22T13:21:09.863Z,8.28
2018-03-22T13:30:47.479Z,8.08
2018-03-22T13:40:31.051Z,9.65
2018-03-22T13:50:01.449Z,10.72
2018-03-22T13:59:37.835Z,9.84
2018-03-22T14:09:18.023Z,9.16
2018-03-22T14:18:56.452Z,10.92
2018-03-22T14:28:35.369Z,10.82
2018-03-22T14:38:10.591Z,10.53
2018-03-22T14:47:43.528Z,10.13
2018-03-22T14:57:17.287Z,9.55
2018-03-22T15:06:53.652Z,8.57
2018-03-22T15:16:16.588Z,7.69
2018-03-22T15:25:56.260Z,7.01
2018-03-22T15:35:22.763Z,6.42
2018-03-22T15:44:55.592Z,6.71
2018-03-22T15:54:28.623Z,6.61
2018-03-22T16:04:10.670Z,6.52
2018-03-22T16:13:49.590Z,7.89
2018-03-22T16:23:23.263Z,6.71
2018-03-22T16:32:52.556Z,5.15
2018-03-22T16:42:26.125Z,4.66
2018-03-22T16:52:00.809Z,3.87
2018-03-22T17:01:35.462Z,3.48
2018-03-22T17:11:10.741Z,3.00
2018-03-22T17:20:45.880Z,2.31
2018-03-22T17:30:39.993Z,1.53
2018-03-22T17:40:37.260Z,1.24
2018-03-22T17:50:33.687Z,0.84
2018-03-22T18:00:29.836Z,0.45
2018-03-22T18:10:26.679Z,0.45
2018-03-22T18:20:23.276Z,-0.04
2018-03-22T18:30:19.385Z,-0.13
2018-03-22T18:40:16.153Z,-0.43
2018-03-22T18:50:12.427Z,-0.62
2018-03-22T19:00:09.603Z,-0.82
2018-03-22T19:10:05.601Z,-0.92
2018-03-22T19:20:01.498Z,-0.92
2018-03-22T19:29:56.163Z,-1.11
2018-03-22T19:39:50.817Z,-1.11
2018-03-22T19:49:48.188Z,-1.31
2018-03-22T19:59:44.999Z,-1.50
2018-03-22T20:09:37.867Z,-1.60
2018-03-22T20:19:31.961Z,-1.60
2018-03-22T20:29:29.381Z,-1.70
2018-03-22T20:39:26.300Z,-1.80
2018-03-22T20:49:22.699Z,-1.99
2018-03-22T20:59:16.616Z,-1.99
2018-03-22T21:09:12.649Z,-2.09
2018-03-22T21:19:10.297Z,-2.19
2018-03-22T21:29:03.698Z,-2.38
2018-03-22T21:39:00.174Z,-2.38
2018-03-22T21:48:57.806Z,-2.38
2018-03-22T21:58:53.290Z,-2.48
2018-03-22T22:08:50.320Z,-2.48
2018-03-22T22:18:47.757Z,-2.68
2018-03-22T22:28:45.211Z,-2.78
2018-03-22T22:38:41.996Z,-2.78
2018-03-22T22:48:38.850Z,-2.97
2018-03-22T22:58:35.839Z,-2.97
2018-03-22T23:08:33.822Z,-3.07
2018-03-22T23:18:32.761Z,-3.07
2018-03-22T23:28:28.386Z,-3.26
2018-03-22T23:38:25.842Z,-3.27
2018-03-22T23:48:21.822Z,-3.26
2018-03-22T23:58:18.984Z,-3.36
